Darstellungsparameter: Aktuell verwendete Einstellungen:
Skalierung der Graphiken ... ?
xyx+y,   Skalierungsfaktor:      Skalierung: Modus: x, Faktor: 1
Darstellungszeitraum ... ?
Vom - - bis: - -   Zeitraum: 10.08.2022 - 10.08.2022
Min/Max/Avg-Anzeige ... ?
Zeige MMA aktuell
Zeige MMA Monat
Zeige MMA alles
Zeige --A aktuell
Zeige --A Monat
Zeige --A alles
Keine MMA-Anzeige
MMA:
Average (ber die Originaldaten)
MMA-Basis: 10.08.2022 - 10.08.2022
Quicknavigation für Darstellung... ?
Tage:      1T, 2T, 3T, 5T -1T -2T -3T -5T +1T +2T +3T +5T
Wochen: 1W, 2W, 3W -1W -2W -3W +1W +2W +3W
Monate: 1M, 3M, 6M -1M -3M -6M +1M +3M +6M
Jahre:    1J, 3J, 5J, 10J -1J -3J -5J -10J +1J +3J +5J +10J
Nutze für die Darstellung ... ?
Originaldaten oder Mittelwerte auf ...
Stundenbasis Tagesbasis Wochenbasis
Monatsbasis Jahresbasis      Datenbasis: Original-Daten
Darstellen als:
Statistik (Auto) Statistik J:M      Darstellung:
Zur Graphik,    zurück zur Übersicht aller Sensoren.
 
Tabellarische Datenbersicht: ?
 
Sensor: Nr:Datum:Temp:Abs-Feuchte:Windchill:Wind:
Aussen-T/F 1 10-08-2022 00:00:00 18.6 C 10.19 g/m*3 18.6 C 4.8 km/h
2 10-08-2022 00:05:00 18.7 C 10.41 g/m*3 18.7 C 3.2 km/h
3 10-08-2022 00:10:00 18.7 C 10.41 g/m*3 18.7 C 4.8 km/h
4 10-08-2022 00:15:00 18.7 C 10.57 g/m*3 18.7 C 4.8 km/h
5 10-08-2022 00:20:00 18.7 C 10.41 g/m*3 18.7 C 3.2 km/h
6 10-08-2022 00:25:00 18.8 C 10.63 g/m*3 18.8 C 3.2 km/h
7 10-08-2022 00:30:00 18.8 C 10.63 g/m*3 18.8 C 3.2 km/h
8 10-08-2022 00:35:00 18.8 C 10.63 g/m*3 18.8 C 1.6 km/h
9 10-08-2022 00:40:00 18.7 C 10.57 g/m*3 18.7 C 1.6 km/h
10 10-08-2022 00:45:00 18.7 C 10.57 g/m*3 18.7 C 3.2 km/h
11 10-08-2022 00:50:00 18.6 C 10.66 g/m*3 18.6 C 3.2 km/h
12 10-08-2022 00:55:00 18.5 C 10.6 g/m*3 18.5 C 0 km/h
13 10-08-2022 01:00:00 18.5 C 10.6 g/m*3 18.5 C 1.6 km/h
14 10-08-2022 01:05:00 18.5 C 10.6 g/m*3 18.5 C 3.2 km/h
15 10-08-2022 01:10:00 18.6 C 10.66 g/m*3 18.6 C 0 km/h
16 10-08-2022 01:15:00 18.7 C 10.73 g/m*3 18.7 C 0 km/h
17 10-08-2022 01:20:00 18.7 C 10.73 g/m*3 18.7 C 0 km/h
18 10-08-2022 01:25:00 18.8 C 10.63 g/m*3 18.8 C 0 km/h
19 10-08-2022 01:30:00 18.8 C 10.79 g/m*3 18.8 C 0 km/h
20 10-08-2022 01:35:00 18.8 C 10.63 g/m*3 18.8 C 0 km/h
21 10-08-2022 01:40:00 18.8 C 10.63 g/m*3 18.8 C 0 km/h
22 10-08-2022 01:45:00 18.8 C 10.63 g/m*3 18.8 C 0 km/h
23 10-08-2022 01:50:00 18.7 C 10.73 g/m*3 18.7 C 0 km/h
24 10-08-2022 01:55:00 18.6 C 10.5 g/m*3 18.6 C 0 km/h
25 10-08-2022 02:00:00 18.6 C 10.66 g/m*3 18.6 C 0 km/h
Sensor: Nr:Datum:Temp:Abs-Feuchte:Windchill:Wind:
Aussen-T/F 26 10-08-2022 02:05:00 18.5 C 10.6 g/m*3 18.5 C 0 km/h
27 10-08-2022 02:10:00 18.4 C 10.54 g/m*3 18.4 C 0 km/h
28 10-08-2022 02:15:00 18.3 C 10.48 g/m*3 18.3 C 0 km/h
29 10-08-2022 02:20:00 18.2 C 10.57 g/m*3 18.2 C 0 km/h
30 10-08-2022 02:25:00 18.2 C 10.57 g/m*3 18.2 C 0 km/h
31 10-08-2022 02:30:00 18.1 C 10.51 g/m*3 18.1 C 1.6 km/h
32 10-08-2022 02:35:00 17.9 C 10.38 g/m*3 17.9 C 1.6 km/h
33 10-08-2022 02:40:00 17.8 C 10.47 g/m*3 17.8 C 0 km/h
34 10-08-2022 02:45:00 17.8 C 10.47 g/m*3 17.8 C 1.6 km/h
35 10-08-2022 02:50:00 17.7 C 10.41 g/m*3 17.7 C 1.6 km/h
36 10-08-2022 02:55:00 17.7 C 10.41 g/m*3 17.7 C 1.6 km/h
37 10-08-2022 03:00:00 17.7 C 10.56 g/m*3 17.7 C 1.6 km/h
38 10-08-2022 03:05:00 17.6 C 10.5 g/m*3 17.6 C 0 km/h
39 10-08-2022 03:10:00 17.6 C 10.5 g/m*3 17.6 C 1.6 km/h
40 10-08-2022 03:15:00 17.6 C 10.5 g/m*3 17.6 C 1.6 km/h
41 10-08-2022 03:20:00 17.5 C 10.44 g/m*3 17.5 C 1.6 km/h
42 10-08-2022 03:25:00 17.4 C 10.37 g/m*3 17.4 C 0 km/h
43 10-08-2022 03:30:00 17.4 C 10.37 g/m*3 17.4 C 1.6 km/h
44 10-08-2022 03:35:00 17.3 C 10.31 g/m*3 17.3 C 1.6 km/h
45 10-08-2022 03:40:00 17.3 C 10.31 g/m*3 17.3 C 0 km/h
46 10-08-2022 03:45:00 17.3 C 10.31 g/m*3 17.3 C 0 km/h
47 10-08-2022 03:50:00 17.2 C 10.4 g/m*3 17.2 C 0 km/h
48 10-08-2022 03:55:00 17.1 C 10.34 g/m*3 17.1 C 1.6 km/h
49 10-08-2022 04:00:00 17 C 10.27 g/m*3 17 C 0 km/h
50 10-08-2022 04:05:00 16.9 C 10.21 g/m*3 16.9 C 1.6 km/h
Sensor: Nr:Datum:Temp:Abs-Feuchte:Windchill:Wind:
Aussen-T/F 51 10-08-2022 04:10:00 16.9 C 10.36 g/m*3 16.9 C 0 km/h
52 10-08-2022 04:15:00 16.9 C 10.36 g/m*3 16.9 C 0 km/h
53 10-08-2022 04:20:00 16.8 C 10.29 g/m*3 16.8 C 1.6 km/h
54 10-08-2022 04:25:00 16.7 C 10.23 g/m*3 16.7 C 0 km/h
55 10-08-2022 04:30:00 16.6 C 10.17 g/m*3 16.6 C 3.2 km/h
56 10-08-2022 04:35:00 16.5 C 10.25 g/m*3 16.5 C 0 km/h
57 10-08-2022 04:40:00 16.4 C 10.19 g/m*3 16.4 C 0 km/h
58 10-08-2022 04:45:00 16.3 C 10.13 g/m*3 16.3 C 0 km/h
59 10-08-2022 04:50:00 16.2 C 10.07 g/m*3 16.2 C 1.6 km/h
60 10-08-2022 04:55:00 16.1 C 10.14 g/m*3 16.1 C 0 km/h
61 10-08-2022 05:00:00 16 C 10.08 g/m*3 16 C 1.6 km/h
62 10-08-2022 05:05:00 15.9 C 10.16 g/m*3 15.9 C 3.2 km/h
63 10-08-2022 05:10:00 15.8 C 10.1 g/m*3 15.8 C 3.2 km/h
64 10-08-2022 05:15:00 15.8 C 10.1 g/m*3 15.8 C 3.2 km/h
65 10-08-2022 05:20:00 15.8 C 10.1 g/m*3 15.8 C 0 km/h
66 10-08-2022 05:25:00 15.7 C 10.03 g/m*3 15.7 C 1.6 km/h
67 10-08-2022 05:30:00 15.7 C 10.03 g/m*3 15.7 C 0 km/h
68 10-08-2022 05:35:00 15.6 C 9.97 g/m*3 15.6 C 0 km/h
69 10-08-2022 05:40:00 15.5 C 9.91 g/m*3 15.5 C 0 km/h
70 10-08-2022 05:45:00 15.4 C 9.85 g/m*3 15.4 C 0 km/h
71 10-08-2022 05:50:00 15.3 C 9.92 g/m*3 15.3 C 0 km/h
72 10-08-2022 05:55:00 15.3 C 9.92 g/m*3 15.3 C 1.6 km/h
73 10-08-2022 06:00:00 15.2 C 9.86 g/m*3 15.2 C 0 km/h
74 10-08-2022 06:05:00 15.1 C 9.93 g/m*3 15.1 C 0 km/h
75 10-08-2022 06:10:00 15 C 9.87 g/m*3 15 C 0 km/h
Sensor: Nr:Datum:Temp:Abs-Feuchte:Windchill:Wind:
Aussen-T/F 76 10-08-2022 06:15:00 14.9 C 9.81 g/m*3 14.9 C 0 km/h
77 10-08-2022 06:20:00 14.8 C 9.88 g/m*3 14.8 C 0 km/h
78 10-08-2022 06:25:00 14.8 C 9.88 g/m*3 14.8 C 0 km/h
79 10-08-2022 06:30:00 14.8 C 9.88 g/m*3 14.8 C 0 km/h
80 10-08-2022 06:35:00 14.7 C 9.95 g/m*3 14.7 C 0 km/h
81 10-08-2022 06:40:00 14.7 C 9.95 g/m*3 14.7 C 0 km/h
82 10-08-2022 06:45:00 14.7 C 9.95 g/m*3 14.7 C 0 km/h
83 10-08-2022 06:50:00 14.7 C 10.07 g/m*3 14.7 C 0 km/h
84 10-08-2022 06:55:00 14.7 C 10.2 g/m*3 14.7 C 0 km/h
85 10-08-2022 07:00:00 14.7 C 10.07 g/m*3 14.7 C 0 km/h
86 10-08-2022 07:05:00 14.6 C 10.01 g/m*3 14.6 C 0 km/h
87 10-08-2022 07:10:00 14.6 C 10.14 g/m*3 14.6 C 0 km/h
88 10-08-2022 07:15:00 14.5 C 10.07 g/m*3 14.5 C 0 km/h
89 10-08-2022 07:20:00 14.5 C 10.2 g/m*3 14.5 C 0 km/h
90 10-08-2022 07:25:00 14.5 C 10.2 g/m*3 14.5 C 0 km/h
91 10-08-2022 07:30:00 14.5 C 10.2 g/m*3 14.5 C 0 km/h
92 10-08-2022 07:35:00 14.5 C 10.32 g/m*3 14.5 C 0 km/h
93 10-08-2022 07:40:00 14.5 C 10.32 g/m*3 14.5 C 0 km/h
94 10-08-2022 07:45:00 14.5 C 10.45 g/m*3 14.5 C 0 km/h
95 10-08-2022 07:50:00 14.5 C 10.45 g/m*3 14.5 C 0 km/h
96 10-08-2022 07:55:00 14.5 C 10.45 g/m*3 14.5 C 0 km/h
97 10-08-2022 08:00:00 14.6 C 10.51 g/m*3 14.6 C 0 km/h
98 10-08-2022 08:05:00 14.6 C 10.51 g/m*3 14.6 C 0 km/h
99 10-08-2022 08:10:00 14.6 C 10.64 g/m*3 14.6 C 0 km/h
100 10-08-2022 08:15:00 14.7 C 10.7 g/m*3 14.7 C 0 km/h
Sensor: Nr:Datum:Temp:Abs-Feuchte:Windchill:Wind:
Aussen-T/F 101 10-08-2022 08:20:00 14.7 C 10.7 g/m*3 14.7 C 0 km/h
102 10-08-2022 08:25:00 14.8 C 10.77 g/m*3 14.8 C 0 km/h
103 10-08-2022 08:30:00 14.8 C 10.89 g/m*3 14.8 C 0 km/h
104 10-08-2022 08:35:00 14.9 C 10.96 g/m*3 14.9 C 0 km/h
105 10-08-2022 08:40:00 15 C 11.03 g/m*3 15 C 1.6 km/h
106 10-08-2022 08:45:00 15.1 C 11.09 g/m*3 15.1 C 0 km/h
107 10-08-2022 08:50:00 15.2 C 11.16 g/m*3 15.2 C 0 km/h
108 10-08-2022 08:55:00 15.3 C 11.23 g/m*3 15.3 C 0 km/h
109 10-08-2022 09:00:00 15.4 C 11.43 g/m*3 15.4 C 0 km/h
110 10-08-2022 09:05:00 15.6 C 11.44 g/m*3 15.6 C 0 km/h
111 10-08-2022 09:10:00 15.7 C 11.51 g/m*3 15.7 C 0 km/h
112 10-08-2022 09:15:00 15.8 C 11.58 g/m*3 15.8 C 1.6 km/h
113 10-08-2022 09:20:00 16 C 11.72 g/m*3 16 C 0 km/h
114 10-08-2022 09:25:00 16.2 C 11.58 g/m*3 16.2 C 1.6 km/h
115 10-08-2022 09:30:00 16.4 C 11.72 g/m*3 16.4 C 0 km/h
116 10-08-2022 09:35:00 16.7 C 11.8 g/m*3 16.7 C 0 km/h
117 10-08-2022 09:40:00 16.9 C 11.79 g/m*3 16.9 C 3.2 km/h
118 10-08-2022 09:45:00 17.2 C 11.86 g/m*3 17.2 C 3.2 km/h
119 10-08-2022 09:50:00 17.6 C 12 g/m*3 17.6 C 0 km/h
120 10-08-2022 09:55:00 17.9 C 11.76 g/m*3 17.9 C 4.8 km/h
121 10-08-2022 10:00:00 18.4 C 12.11 g/m*3 18.4 C 1.6 km/h
122 10-08-2022 10:05:00 18.7 C 11.85 g/m*3 18.7 C 3.2 km/h
123 10-08-2022 10:10:00 18.9 C 11.83 g/m*3 18.9 C 4.8 km/h
124 10-08-2022 10:15:00 19.3 C 11.94 g/m*3 19.3 C 4.8 km/h
125 10-08-2022 10:20:00 19.7 C 12.23 g/m*3 19.7 C 1.6 km/h
Sensor: Nr:Datum:Temp:Abs-Feuchte:Windchill:Wind:
Aussen-T/F 126 10-08-2022 10:25:00 19.9 C 11.85 g/m*3 19.9 C 1.6 km/h
127 10-08-2022 10:30:00 20.4 C 11.68 g/m*3 20.4 C 4.8 km/h
128 10-08-2022 10:35:00 20.7 C 12.06 g/m*3 20.7 C 1.6 km/h
129 10-08-2022 10:40:00 20.9 C 12.02 g/m*3 20.9 C 1.6 km/h
130 10-08-2022 10:45:00 21.3 C 11.56 g/m*3 21.3 C 6.4 km/h
131 10-08-2022 10:50:00 21.9 C 11.96 g/m*3 21.9 C 6.4 km/h
132 10-08-2022 10:55:00 22.4 C 11.52 g/m*3 22.4 C 4.8 km/h
133 10-08-2022 11:00:00 22.9 C 12.06 g/m*3 22.9 C 3.2 km/h
134 10-08-2022 11:05:00 23.3 C 11.71 g/m*3 23.3 C 4.8 km/h
135 10-08-2022 11:10:00 23.8 C 12.26 g/m*3 23.8 C 4.8 km/h
136 10-08-2022 11:15:00 24.2 C 11.88 g/m*3 24.2 C 4.8 km/h
137 10-08-2022 11:20:00 24.6 C 11.7 g/m*3 24.6 C 4.8 km/h
138 10-08-2022 11:25:00 25 C 11.28 g/m*3 25 C 4.8 km/h
139 10-08-2022 11:30:00 25.4 C 10.59 g/m*3 25.4 C 9.7 km/h
140 10-08-2022 11:35:00 25.8 C 10.83 g/m*3 25.8 C 11.3 km/h
141 10-08-2022 11:40:00 26.1 C 10.28 g/m*3 26.1 C 12.9 km/h
142 10-08-2022 11:45:00 26.3 C 10.64 g/m*3 26.3 C 9.7 km/h
143 10-08-2022 11:50:00 26.6 C 10.07 g/m*3 26.6 C 12.9 km/h
144 10-08-2022 11:55:00 26.8 C 10.18 g/m*3 26.8 C 6.4 km/h
145 10-08-2022 12:00:00 27.1 C 10.61 g/m*3 27.1 C 4.8 km/h
146 10-08-2022 12:05:00 27.3 C 9.94 g/m*3 27.3 C 11.3 km/h
147 10-08-2022 12:10:00 27.6 C 10.38 g/m*3 27.6 C 14.5 km/h
148 10-08-2022 12:15:00 27.8 C 9.95 g/m*3 27.8 C 6.4 km/h
149 10-08-2022 12:20:00 28.1 C 10.12 g/m*3 28.1 C 9.7 km/h
150 10-08-2022 12:25:00 28.4 C 10.28 g/m*3 28.4 C 11.3 km/h
Sensor: Nr:Datum:Temp:Abs-Feuchte:Windchill:Wind:
Aussen-T/F 151 10-08-2022 12:30:00 28.6 C 9.84 g/m*3 28.6 C 19.3 km/h
152 10-08-2022 12:35:00 28.6 C 10.12 g/m*3 28.6 C 14.5 km/h
153 10-08-2022 12:40:00 28.6 C 9.84 g/m*3 28.6 C 11.3 km/h
154 10-08-2022 12:45:00 28.6 C 9.84 g/m*3 28.6 C 12.9 km/h
155 10-08-2022 12:50:00 28.6 C 9.55 g/m*3 28.6 C 11.3 km/h
156 10-08-2022 12:55:00 28.6 C 9.84 g/m*3 28.6 C 12.9 km/h
157 10-08-2022 13:00:00 28.6 C 9.84 g/m*3 28.6 C 12.9 km/h
158 10-08-2022 13:05:00 28.8 C 9.94 g/m*3 28.8 C 12.9 km/h
159 10-08-2022 13:10:00 29.1 C 9.82 g/m*3 29.1 C 12.9 km/h
160 10-08-2022 13:15:00 29.4 C 10.27 g/m*3 29.4 C 11.3 km/h
161 10-08-2022 13:20:00 29.7 C 9.85 g/m*3 29.7 C 14.5 km/h
162 10-08-2022 13:25:00 29.7 C 9.55 g/m*3 29.7 C 20.9 km/h
163 10-08-2022 13:30:00 29.6 C 9.5 g/m*3 29.6 C 20.9 km/h
164 10-08-2022 13:35:00 29.6 C 9.5 g/m*3 29.6 C 8.1 km/h
165 10-08-2022 13:40:00 29.8 C 9.3 g/m*3 29.8 C 11.3 km/h
166 10-08-2022 13:45:00 29.9 C 9.35 g/m*3 29.9 C 16.1 km/h
167 10-08-2022 13:50:00 29.9 C 9.05 g/m*3 29.9 C 17.7 km/h
168 10-08-2022 13:55:00 29.7 C 8.95 g/m*3 29.7 C 16.1 km/h
169 10-08-2022 14:00:00 29.7 C 9.55 g/m*3 29.7 C 11.3 km/h
170 10-08-2022 14:05:00 29.8 C 9 g/m*3 29.8 C 19.3 km/h
171 10-08-2022 14:10:00 29.9 C 9.05 g/m*3 29.9 C 17.7 km/h
172 10-08-2022 14:15:00 29.9 C 9.05 g/m*3 29.9 C 22.5 km/h
173 10-08-2022 14:20:00 30.2 C 9.5 g/m*3 30.2 C 9.7 km/h
174 10-08-2022 14:25:00 30.4 C 8.99 g/m*3 30.4 C 12.9 km/h
175 10-08-2022 14:30:00 30.3 C 8.94 g/m*3 30.3 C 17.7 km/h
Sensor: Nr:Datum:Temp:Abs-Feuchte:Windchill:Wind:
Aussen-T/F 176 10-08-2022 14:35:00 30.3 C 9.25 g/m*3 30.3 C 27.4 km/h
177 10-08-2022 14:40:00 30.3 C 9.25 g/m*3 30.3 C 27.4 km/h
178 10-08-2022 14:45:00 30.4 C 8.99 g/m*3 30.4 C 14.5 km/h
179 10-08-2022 14:50:00 30.5 C 9.03 g/m*3 30.5 C 14.5 km/h
180 10-08-2022 14:55:00 30.7 C 9.13 g/m*3 30.7 C 19.3 km/h
181 10-08-2022 15:00:00 30.9 C 9.23 g/m*3 30.9 C 14.5 km/h
182 10-08-2022 15:05:00 30.7 C 9.13 g/m*3 30.7 C 27.4 km/h
183 10-08-2022 15:10:00 30.6 C 9.08 g/m*3 30.6 C 20.9 km/h
184 10-08-2022 15:15:00 30.7 C 9.45 g/m*3 30.7 C 9.7 km/h
185 10-08-2022 15:20:00 31.1 C 9.01 g/m*3 31.1 C 12.9 km/h
186 10-08-2022 15:25:00 31.2 C 8.73 g/m*3 31.2 C 12.9 km/h
187 10-08-2022 15:30:00 31.3 C 8.78 g/m*3 31.3 C 12.9 km/h
188 10-08-2022 15:35:00 31.5 C 8.88 g/m*3 31.5 C 16.1 km/h
189 10-08-2022 15:40:00 31.5 C 8.88 g/m*3 31.5 C 22.5 km/h
190 10-08-2022 15:45:00 31.6 C 8.92 g/m*3 31.6 C 16.1 km/h
191 10-08-2022 15:50:00 31.5 C 8.88 g/m*3 31.5 C 17.7 km/h
192 10-08-2022 15:55:00 31.6 C 8.92 g/m*3 31.6 C 17.7 km/h
193 10-08-2022 16:00:00 31.2 C 8.73 g/m*3 31.2 C 25.7 km/h
194 10-08-2022 16:05:00 31 C 8.64 g/m*3 31 C 16.1 km/h
195 10-08-2022 16:10:00 31 C 8.64 g/m*3 31 C 17.7 km/h
196 10-08-2022 16:15:00 31.1 C 8.69 g/m*3 31.1 C 20.9 km/h
197 10-08-2022 16:20:00 31.3 C 8.78 g/m*3 31.3 C 16.1 km/h
198 10-08-2022 16:25:00 31.4 C 8.5 g/m*3 31.4 C 14.5 km/h
199 10-08-2022 16:30:00 31.4 C 8.83 g/m*3 31.4 C 17.7 km/h
200 10-08-2022 16:35:00 31.6 C 8.59 g/m*3 31.6 C 12.9 km/h
Sensor: Nr:Datum:Temp:Abs-Feuchte:Windchill:Wind:
Aussen-T/F 201 10-08-2022 16:40:00 31.7 C 8.97 g/m*3 31.7 C 16.1 km/h
202 10-08-2022 16:45:00 31.7 C 8.64 g/m*3 31.7 C 19.3 km/h
203 10-08-2022 16:50:00 31.9 C 8.73 g/m*3 31.9 C 12.9 km/h
204 10-08-2022 16:55:00 32.2 C 8.87 g/m*3 32.2 C 16.1 km/h
205 10-08-2022 17:00:00 32.3 C 8.92 g/m*3 32.3 C 8.1 km/h
206 10-08-2022 17:05:00 32.4 C 8.62 g/m*3 32.4 C 9.7 km/h
207 10-08-2022 17:10:00 32.4 C 8.62 g/m*3 32.4 C 12.9 km/h
208 10-08-2022 17:15:00 32.4 C 8.28 g/m*3 32.4 C 11.3 km/h
209 10-08-2022 17:20:00 32.4 C 8.28 g/m*3 32.4 C 6.4 km/h
210 10-08-2022 17:25:00 32.3 C 8.23 g/m*3 32.3 C 14.5 km/h
211 10-08-2022 17:30:00 32 C 7.76 g/m*3 32 C 19.3 km/h
212 10-08-2022 17:35:00 31.6 C 7.93 g/m*3 31.6 C 19.3 km/h
213 10-08-2022 17:40:00 31.6 C 7.93 g/m*3 31.6 C 14.5 km/h
214 10-08-2022 17:45:00 31.6 C 7.93 g/m*3 31.6 C 17.7 km/h
215 10-08-2022 17:50:00 31.5 C 7.89 g/m*3 31.5 C 12.9 km/h
216 10-08-2022 17:55:00 31.7 C 8.31 g/m*3 31.7 C 14.5 km/h
217 10-08-2022 18:00:00 31.6 C 7.93 g/m*3 31.6 C 17.7 km/h
218 10-08-2022 18:05:00 31.6 C 7.93 g/m*3 31.6 C 12.9 km/h
219 10-08-2022 18:10:00 31.7 C 7.97 g/m*3 31.7 C 12.9 km/h
220 10-08-2022 18:15:00 31.7 C 7.97 g/m*3 31.7 C 9.7 km/h
221 10-08-2022 18:20:00 31.8 C 8.02 g/m*3 31.8 C 11.3 km/h
222 10-08-2022 18:25:00 31.8 C 8.02 g/m*3 31.8 C 6.4 km/h
223 10-08-2022 18:30:00 31.9 C 8.06 g/m*3 31.9 C 12.9 km/h
224 10-08-2022 18:35:00 31.7 C 8.31 g/m*3 31.7 C 9.7 km/h
225 10-08-2022 18:40:00 31.5 C 8.22 g/m*3 31.5 C 12.9 km/h
Sensor: Nr:Datum:Temp:Abs-Feuchte:Windchill:Wind:
Aussen-T/F 226 10-08-2022 18:45:00 31.2 C 8.09 g/m*3 31.2 C 14.5 km/h
227 10-08-2022 18:50:00 31.1 C 8.04 g/m*3 31.1 C 11.3 km/h
228 10-08-2022 18:55:00 30.9 C 7.96 g/m*3 30.9 C 16.1 km/h
229 10-08-2022 19:00:00 30.7 C 7.87 g/m*3 30.7 C 16.1 km/h
230 10-08-2022 19:05:00 30.5 C 8.1 g/m*3 30.5 C 14.5 km/h
231 10-08-2022 19:10:00 30.4 C 8.06 g/m*3 30.4 C 17.7 km/h
232 10-08-2022 19:15:00 30.3 C 8.32 g/m*3 30.3 C 17.7 km/h
233 10-08-2022 19:20:00 30.2 C 7.97 g/m*3 30.2 C 17.7 km/h
234 10-08-2022 19:25:00 30.2 C 7.97 g/m*3 30.2 C 14.5 km/h
235 10-08-2022 19:30:00 30.2 C 8.28 g/m*3 30.2 C 14.5 km/h
236 10-08-2022 19:35:00 30.1 C 8.23 g/m*3 30.1 C 12.9 km/h
237 10-08-2022 19:40:00 30 C 8.19 g/m*3 30 C 14.5 km/h
238 10-08-2022 19:45:00 29.8 C 8.1 g/m*3 29.8 C 12.9 km/h
239 10-08-2022 19:50:00 29.7 C 8.06 g/m*3 29.7 C 16.1 km/h
240 10-08-2022 19:55:00 29.7 C 8.06 g/m*3 29.7 C 8.1 km/h
241 10-08-2022 20:00:00 29.6 C 8.01 g/m*3 29.6 C 6.4 km/h
242 10-08-2022 20:05:00 29.5 C 8.85 g/m*3 29.5 C 8.1 km/h
243 10-08-2022 20:10:00 29.3 C 8.76 g/m*3 29.3 C 3.2 km/h
244 10-08-2022 20:15:00 29.1 C 9.24 g/m*3 29.1 C 0 km/h
245 10-08-2022 20:20:00 28.9 C 10.57 g/m*3 28.9 C 3.2 km/h
246 10-08-2022 20:25:00 28.6 C 10.68 g/m*3 28.6 C 1.6 km/h
247 10-08-2022 20:30:00 28.3 C 10.51 g/m*3 28.3 C 1.6 km/h
248 10-08-2022 20:35:00 27.9 C 10.55 g/m*3 27.9 C 1.6 km/h
249 10-08-2022 20:40:00 27.4 C 10.26 g/m*3 27.4 C 3.2 km/h
250 10-08-2022 20:45:00 26.8 C 10.18 g/m*3 26.8 C 1.6 km/h
Sensor: Nr:Datum:Temp:Abs-Feuchte:Windchill:Wind:
Aussen-T/F 251 10-08-2022 20:50:00 26.3 C 10.4 g/m*3 26.3 C 1.6 km/h
252 10-08-2022 20:55:00 25.8 C 10.11 g/m*3 25.8 C 1.6 km/h
253 10-08-2022 21:00:00 25.3 C 10.07 g/m*3 25.3 C 1.6 km/h
254 10-08-2022 21:05:00 24.8 C 10.47 g/m*3 24.8 C 1.6 km/h
255 10-08-2022 21:10:00 24.3 C 9.52 g/m*3 24.3 C 1.6 km/h
256 10-08-2022 21:15:00 23.9 C 9.52 g/m*3 23.9 C 1.6 km/h
257 10-08-2022 21:20:00 23.6 C 9.57 g/m*3 23.6 C 1.6 km/h
258 10-08-2022 21:25:00 23.2 C 9.56 g/m*3 23.2 C 1.6 km/h
259 10-08-2022 21:30:00 22.9 C 9.4 g/m*3 22.9 C 1.6 km/h
260 10-08-2022 21:35:00 22.6 C 9.44 g/m*3 22.6 C 1.6 km/h
261 10-08-2022 21:40:00 22.3 C 9.68 g/m*3 22.3 C 1.6 km/h
262 10-08-2022 21:45:00 22.1 C 9.56 g/m*3 22.1 C 3.2 km/h
263 10-08-2022 21:50:00 21.9 C 9.65 g/m*3 21.9 C 4.8 km/h
264 10-08-2022 21:55:00 21.7 C 9.16 g/m*3 21.7 C 3.2 km/h
265 10-08-2022 22:00:00 21.6 C 9.86 g/m*3 21.6 C 0 km/h
266 10-08-2022 22:05:00 21.5 C 9.81 g/m*3 21.5 C 3.2 km/h
267 10-08-2022 22:10:00 21.3 C 9.69 g/m*3 21.3 C 3.2 km/h
268 10-08-2022 22:15:00 21.2 C 9.64 g/m*3 21.2 C 3.2 km/h
269 10-08-2022 22:20:00 21.1 C 9.77 g/m*3 21.1 C 3.2 km/h
270 10-08-2022 22:25:00 20.9 C 9.47 g/m*3 20.9 C 3.2 km/h
271 10-08-2022 22:30:00 20.8 C 9.6 g/m*3 20.8 C 1.6 km/h
272 10-08-2022 22:35:00 20.7 C 9.72 g/m*3 20.7 C 3.2 km/h
273 10-08-2022 22:40:00 20.6 C 9.66 g/m*3 20.6 C 3.2 km/h
274 10-08-2022 22:45:00 20.6 C 9.66 g/m*3 20.6 C 3.2 km/h
275 10-08-2022 22:50:00 20.4 C 9.55 g/m*3 20.4 C 3.2 km/h
Sensor: Nr:Datum:Temp:Abs-Feuchte:Windchill:Wind:
Aussen-T/F 276 10-08-2022 22:55:00 20.3 C 9.5 g/m*3 20.3 C 1.6 km/h
277 10-08-2022 23:00:00 20.2 C 9.44 g/m*3 20.2 C 1.6 km/h
278 10-08-2022 23:05:00 20.2 C 9.62 g/m*3 20.2 C 3.2 km/h
279 10-08-2022 23:10:00 20.1 C 9.56 g/m*3 20.1 C 1.6 km/h
280 10-08-2022 23:15:00 20.1 C 9.39 g/m*3 20.1 C 3.2 km/h
281 10-08-2022 23:20:00 19.9 C 9.62 g/m*3 19.9 C 3.2 km/h
282 10-08-2022 23:25:00 19.9 C 9.45 g/m*3 19.9 C 1.6 km/h
283 10-08-2022 23:30:00 19.8 C 9.39 g/m*3 19.8 C 1.6 km/h
284 10-08-2022 23:35:00 19.7 C 9.51 g/m*3 19.7 C 1.6 km/h
285 10-08-2022 23:40:00 19.7 C 9.51 g/m*3 19.7 C 1.6 km/h
286 10-08-2022 23:45:00 19.7 C 9.68 g/m*3 19.7 C 1.6 km/h
287 10-08-2022 23:50:00 19.6 C 9.62 g/m*3 19.6 C 1.6 km/h
288 10-08-2022 23:55:00 19.6 C 9.62 g/m*3 19.6 C 3.2 km/h

Legende:
   Min
   Max


Maximal/Minimal-Werte vom 10.08.2022 - 10.08.2022

Sensor Min Max Avg
Temp
(Aussen-T/F)
14.5 °C
10-08-2022  07:15:00
32.4 °C
10-08-2022  17:05:00
22.81 °C
Abs-Feuchte
(Aussen-T/F)
7.76 g/m*3
10-08-2022  17:30:00
12.26 g/m*3
10-08-2022  11:10:00
9.86 g/m*3
Windchill
(Aussen-T/F)
14.5 C
10-08-2022  07:15:00
32.4 C
10-08-2022  17:05:00
22.73 C

Die Daten stammen von einer Davis Vantage Pro 2 Wetter-Station und werden unter Linux mit der Software wview2wettercgi und aufbereitet. Alle Angaben erfolgen ohne Gewähr für ihre Vollständigkeit oder Richtigkeit.
Kontakt: Rainer Krienke krienke@uni-koblenz.de . Meine Webseiten an der Uni Koblenz oder privat.
Version: $Revision: 0.78 $